Time;durP1;ratioP1;P1;durP2;ratioP2;P2;SDS_P1;SDS_P2;PMS_P1;PMS_P2;Temp;Humidity;BMP_temperature;BMP_pressure;BME280_temperature;BME280_humidity;BME280_pressure;Samples;Min_cycle;Max_cycle;Signal;HPM_P1;HPM_P2
2023/08/12 00:02:09;;;;;;;5.25;3.00;;;;;;;27.74;56.20;101808.25;5093672;28;20028;-73
2023/08/12 00:04:35;;;;;;;4.72;2.33;;;;;;;27.73;56.08;101811.03;5091814;28;20043;-73
2023/08/12 00:07:00;;;;;;;5.50;2.28;;;;;;;28.60;53.73;101798.75;5092600;28;20031;-72
2023/08/12 00:09:25;;;;;;;4.55;2.08;;;;;;;28.98;52.52;101796.97;5091262;28;20083;-73
2023/08/12 00:11:51;;;;;;;3.33;2.00;;;;;;;29.14;51.86;101791.34;5088358;28;20024;-73
2023/08/12 00:14:16;;;;;;;3.88;1.67;;;;;;;29.37;51.45;101788.78;5091558;28;20024;-73
2023/08/12 00:16:42;;;;;;;3.35;2.03;;;;;;;29.18;51.63;101784.75;5090087;28;20129;-73
2023/08/12 00:19:08;;;;;;;6.43;2.42;;;;;;;28.69;53.58;101782.97;5092563;28;20024;-73
2023/08/12 00:21:33;;;;;;;9.65;2.22;;;;;;;28.84;52.53;101771.09;5092269;28;20036;-73
2023/08/12 00:23:59;;;;;;;5.25;2.78;;;;;;;28.97;52.14;101781.78;5091254;28;20379;-74
2023/08/12 00:26:24;;;;;;;4.90;2.47;;;;;;;28.84;51.88;101789.91;5091327;28;20119;-73
2023/08/12 00:28:50;;;;;;;4.43;2.15;;;;;;;29.26;51.17;101785.06;5091704;28;20067;-73
2023/08/12 00:31:15;;;;;;;4.75;2.65;;;;;;;28.91;51.93;101777.72;5091118;28;20511;-73
2023/08/12 00:33:43;;;;;;;7.85;3.72;;;;;;;28.94;51.72;101777.50;5090484;28;20383;-73
2023/08/12 00:36:08;;;;;;;3.75;2.50;;;;;;;28.89;52.15;101774.31;5093779;28;20059;-72
2023/08/12 00:38:37;;;;;;;7.03;2.88;;;;;;;28.96;51.78;101773.84;5090611;28;20452;-73
2023/08/12 00:41:03;;;;;;;9.75;3.17;;;;;;;29.11;50.89;101767.31;5091666;28;20023;-73
2023/08/12 00:43:28;;;;;;;5.30;2.83;;;;;;;29.27;51.21;101764.38;5089754;28;20028;-73
2023/08/12 00:45:54;;;;;;;4.47;2.60;;;;;;;29.19;51.39;101759.53;5091197;28;20536;-73
2023/08/12 00:48:19;;;;;;;5.45;2.83;;;;;;;28.67;52.43;101768.75;5091798;28;20024;-73
2023/08/12 00:50:45;;;;;;;6.38;3.58;;;;;;;29.07;51.67;101760.44;5091921;28;20060;-73
2023/08/12 00:53:13;;;;;;;4.72;2.75;;;;;;;28.74;52.57;101752.06;5091538;28;20032;-74
2023/08/12 00:55:38;;;;;;;6.68;3.55;;;;;;;28.68;53.03;101748.97;5089660;28;20028;-73
2023/08/12 00:58:04;;;;;;;9.57;4.05;;;;;;;29.25;51.82;101748.34;5082591;28;20105;-74
2023/08/12 01:00:31;;;;;;;7.63;3.83;;;;;;;29.05;52.73;101746.25;5071056;28;20111;-73
2023/08/12 01:02:57;;;;;;;12.63;3.70;;;;;;;28.49;54.27;101744.88;5084565;28;20024;-74
2023/08/12 01:05:23;;;;;;;10.65;4.35;;;;;;;28.81;54.06;101739.03;5092999;28;20028;-73
2023/08/12 01:07:48;;;;;;;8.52;3.67;;;;;;;28.98;53.18;101739.63;5089670;28;20032;-74
2023/08/12 01:10:15;;;;;;;8.27;3.47;;;;;;;29.54;51.31;101745.28;5091793;28;20056;-73
2023/08/12 01:12:47;;;;;;;4.82;3.25;;;;;;;29.24;52.69;101751.13;5085881;28;20029;-73
2023/08/12 01:15:17;;;;;;;6.35;3.83;;;;;;;29.23;51.86;101746.72;5084756;28;20673;-73
2023/08/12 01:17:43;;;;;;;4.95;3.55;;;;;;;29.36;52.10;101735.91;5091684;28;20103;-73
2023/08/12 01:20:14;;;;;;;8.63;3.47;;;;;;;29.42;51.68;101733.59;5091368;28;20414;-73
2023/08/12 01:22:40;;;;;;;10.40;3.67;;;;;;;29.51;51.62;101726.66;5071060;28;20025;-73
2023/08/12 01:25:07;;;;;;;6.93;3.85;;;;;;;29.76;51.04;101730.16;5071508;28;20447;-74
2023/08/12 01:27:37;;;;;;;7.85;3.92;;;;;;;29.70;51.06;101719.84;5086948;28;20055;-74
2023/08/12 01:30:05;;;;;;;10.85;4.20;;;;;;;29.50;51.73;101719.56;5084588;28;20020;-73
2023/08/12 01:32:58;;;;;;;9.57;4.45;;;;;;;29.51;51.93;101712.31;5087270;28;20030;-73
2023/08/12 01:35:38;;;;;;;10.32;4.78;;;;;;;29.41;52.25;101717.56;5074980;28;20055;-73
2023/08/12 01:38:05;;;;;;;10.73;4.30;;;;;;;29.83;51.33;101711.66;5088903;28;20043;-74
2023/08/12 01:40:33;;;;;;;11.48;4.15;;;;;;;29.57;51.81;101707.34;5090578;28;20034;-73
2023/08/12 01:42:59;;;;;;;7.22;4.10;;;;;;;29.88;50.76;101702.28;5088312;28;20027;-73
2023/08/12 01:45:24;;;;;;;14.40;5.22;;;;;;;29.60;51.87;101704.41;5088939;28;20027;-74
2023/08/12 01:47:53;;;;;;;10.48;4.85;;;;;;;29.36;52.53;101708.97;5089235;28;20462;-74
2023/08/12 01:50:19;;;;;;;11.35;4.82;;;;;;;29.89;51.03;101703.13;5090880;28;20032;-73
2023/08/12 01:52:44;;;;;;;7.68;4.32;;;;;;;29.71;51.52;101705.41;5089365;28;20028;-73
2023/08/12 01:55:10;;;;;;;9.27;4.53;;;;;;;30.03;50.57;101699.34;5090006;28;20597;-73
2023/08/12 01:57:35;;;;;;;8.40;4.78;;;;;;;29.48;52.65;101699.09;5078130;28;20048;-73
2023/08/12 02:00:01;;;;;;;9.43;4.68;;;;;;;29.52;52.23;101696.06;5053591;28;20031;-72
2023/08/12 02:02:27;;;;;;;10.07;4.68;;;;;;;29.24;53.31;101698.19;5051733;28;20024;-73
2023/08/12 02:04:53;;;;;;;12.25;4.55;;;;;;;29.15;53.82;101688.06;5053619;28;20494;-73
2023/08/12 02:07:18;;;;;;;7.07;4.22;;;;;;;29.05;54.36;101687.06;5066454;28;20478;-74
2023/08/12 02:09:43;;;;;;;12.00;4.93;;;;;;;29.26;53.48;101690.84;5070549;28;20031;-73
2023/08/12 02:12:09;;;;;;;10.30;5.57;;;;;;;29.54;52.47;101683.34;5049096;28;20374;-74
2023/08/12 02:14:36;;;;;;;12.40;5.15;;;;;;;29.51;53.11;101688.97;5053131;28;20461;-72
2023/08/12 02:17:05;;;;;;;7.68;4.78;;;;;;;29.56;52.67;101683.22;5050952;28;20047;-72
2023/08/12 02:19:31;;;;;;;7.88;4.85;;;;;;;29.65;52.79;101673.56;5053473;28;20035;-72
2023/08/12 02:21:56;;;;;;;8.77;5.18;;;;;;;29.38;53.17;101678.28;5042357;28;20025;-72
2023/08/12 02:24:22;;;;;;;10.85;5.35;;;;;;;28.88;55.15;101670.34;5049522;28;20488;-71
2023/08/12 02:26:47;;;;;;;11.90;5.45;;;;;;;29.46;53.51;101672.31;5050799;28;20025;-71
2023/08/12 02:29:13;;;;;;;9.15;4.93;;;;;;;29.68;52.84;101674.19;5037933;28;20021;-72
2023/08/12 02:31:38;;;;;;;17.30;6.38;;;;;;;29.28;54.15;101675.44;5047070;28;20028;-71
2023/08/12 02:34:04;;;;;;;17.25;5.50;;;;;;;29.71;52.80;101668.53;5071336;28;20443;-71
2023/08/12 02:36:29;;;;;;;11.70;5.43;;;;;;;28.97;54.89;101668.78;5052581;28;20027;-71
2023/08/12 02:38:55;;;;;;;11.25;5.20;;;;;;;29.49;53.88;101663.97;5051776;28;20024;-72
2023/08/12 02:41:20;;;;;;;12.52;5.22;;;;;;;29.33;54.26;101661.59;5069644;28;20028;-72
2023/08/12 02:43:46;;;;;;;10.30;5.60;;;;;;;29.18;54.75;101660.06;5051525;28;20379;-73
2023/08/12 02:46:12;;;;;;;14.85;6.05;;;;;;;29.26;55.01;101658.56;5052707;28;20040;-73
2023/08/12 02:48:38;;;;;;;11.43;6.45;;;;;;;29.06;56.06;101656.50;5052148;28;20477;-73
2023/08/12 02:51:03;;;;;;;12.32;5.25;;;;;;;29.03;57.11;101662.09;5043830;28;20033;-73
2023/08/12 02:53:29;;;;;;;10.02;5.72;;;;;;;29.32;55.81;101654.53;5070302;28;20051;-73
2023/08/12 02:55:54;;;;;;;10.27;5.68;;;;;;;29.33;55.98;101647.31;5070543;28;20036;-73
2023/08/12 02:58:19;;;;;;;9.73;5.35;;;;;;;29.17;56.52;101643.06;5059464;28;20052;-72
2023/08/12 03:00:45;;;;;;;11.02;5.20;;;;;;;29.52;55.24;101636.81;5052560;28;20036;-73
2023/08/12 03:03:10;;;;;;;12.68;6.15;;;;;;;29.48;55.54;101629.94;5044742;28;20111;-73
2023/08/12 03:05:36;;;;;;;14.02;6.63;;;;;;;29.33;55.97;101631.16;5031169;28;20056;-73
2023/08/12 03:08:03;;;;;;;9.73;5.68;;;;;;;29.40;55.65;101624.31;5032932;28;20094;-73
2023/08/12 03:10:29;;;;;;;10.40;6.10;;;;;;;29.37;55.80;101627.25;5046151;28;20025;-72
2023/08/12 03:12:55;;;;;;;13.77;6.05;;;;;;;29.35;56.54;101629.22;5049443;28;20343;-73
2023/08/12 03:15:20;;;;;;;9.48;6.38;;;;;;;29.02;56.74;101628.94;5051928;28;20027;-73
2023/08/12 03:17:46;;;;;;;13.73;6.15;;;;;;;28.58;58.37;101614.31;5051938;28;20094;-72
2023/08/12 03:20:11;;;;;;;12.82;6.00;;;;;;;28.79;57.91;101619.94;5051594;28;20081;-73
2023/08/12 03:22:37;;;;;;;11.25;6.45;;;;;;;28.67;59.04;101615.47;5052209;28;20043;-74
2023/08/12 03:25:04;;;;;;;10.10;6.00;;;;;;;28.78;59.02;101610.13;5050033;28;20495;-73
2023/08/12 03:27:29;;;;;;;11.30;6.35;;;;;;;29.04;58.22;101593.84;5068915;28;20025;-72
2023/08/12 03:29:55;;;;;;;12.38;6.60;;;;;;;29.08;57.88;101589.94;5067854;28;20024;-72
2023/08/12 03:32:20;;;;;;;13.27;7.03;;;;;;;29.23;57.37;101594.13;5070400;28;20042;-72
2023/08/12 03:34:46;;;;;;;12.93;6.07;;;;;;;28.98;57.83;101599.72;5050869;28;20070;-72
2023/08/12 03:37:11;;;;;;;15.30;6.93;;;;;;;28.96;58.34;101607.03;5070299;28;20059;-72
2023/08/12 03:39:37;;;;;;;14.25;7.05;;;;;;;28.40;60.69;101619.22;5050797;28;20033;-72
2023/08/12 03:42:02;;;;;;;9.45;5.95;;;;;;;28.47;60.05;101612.41;5069090;28;20102;-72
2023/08/12 03:44:28;;;;;;;11.68;6.93;;;;;;;28.94;58.90;101608.00;5051164;28;20047;-72
2023/08/12 03:46:53;;;;;;;17.92;6.68;;;;;;;28.90;59.21;101609.19;5051277;28;20047;-72
2023/08/12 03:49:18;;;;;;;14.07;6.82;;;;;;;28.67;59.47;101607.41;5068752;28;20035;-72
2023/08/12 03:51:44;;;;;;;13.57;6.97;;;;;;;29.33;57.34;101598.84;5038179;28;20040;-72
2023/08/12 03:54:09;;;;;;;11.13;6.50;;;;;;;29.45;57.11;101589.81;5033176;28;20032;-72
2023/08/12 03:56:37;;;;;;;13.13;6.20;;;;;;;29.23;57.08;101580.69;5049703;28;20074;-72
2023/08/12 03:59:03;;;;;;;11.35;5.80;;;;;;;29.09;57.33;101583.59;5049876;28;20542;-73
2023/08/12 04:01:28;;;;;;;12.05;6.35;;;;;;;29.43;56.86;101583.69;5049544;28;20029;-72
2023/08/12 04:03:53;;;;;;;12.32;5.88;;;;;;;29.43;57.06;101583.69;5069782;28;20021;-73
2023/08/12 04:06:19;;;;;;;11.50;6.05;;;;;;;29.51;56.56;101581.25;5069532;28;20507;-72
2023/08/12 04:08:44;;;;;;;14.50;6.35;;;;;;;29.26;57.41;101577.81;5047006;28;20060;-72
2023/08/12 04:11:10;;;;;;;14.38;6.15;;;;;;;29.34;57.74;101565.56;5051100;28;20044;-73
2023/08/12 04:13:35;;;;;;;10.52;5.95;;;;;;;29.47;56.83;101563.63;5051199;28;20047;-72
2023/08/12 04:16:01;;;;;;;11.98;6.35;;;;;;;29.45;56.69;101558.34;5050807;28;20036;-72
2023/08/12 04:18:26;;;;;;;13.80;6.10;;;;;;;29.76;56.03;101549.69;5071387;28;20562;-72
2023/08/12 04:20:52;;;;;;;12.48;6.38;;;;;;;29.67;55.69;101543.19;5055180;28;20036;-72
2023/08/12 04:23:18;;;;;;;14.00;5.93;;;;;;;29.54;55.92;101543.31;5054301;28;20458;-73
2023/08/12 04:25:45;;;;;;;10.63;6.63;;;;;;;29.22;57.87;101533.22;5072977;28;20028;-71
2023/08/12 04:28:12;;;;;;;9.15;5.70;;;;;;;28.81;58.39;101540.00;5072627;28;20033;-73
2023/08/12 04:30:46;;;;;;;13.38;6.18;;;;;;;28.97;58.03;101536.13;5045949;28;20435;-73
2023/08/12 04:33:12;;;;;;;9.02;5.80;;;;;;;28.68;58.95;101533.81;5072351;28;20029;-73
2023/08/12 04:35:38;;;;;;;12.93;6.38;;;;;;;29.20;57.64;101535.16;5055304;28;20025;-72
2023/08/12 04:38:04;;;;;;;10.60;5.70;;;;;;;28.61;58.99;101536.09;5055090;28;20029;-72
2023/08/12 04:40:29;;;;;;;15.50;6.82;;;;;;;29.06;58.50;101532.72;5053937;28;20032;-73
2023/08/12 04:42:55;;;;;;;10.48;5.80;;;;;;;29.03;58.11;101532.94;5055226;28;20032;-72
2023/08/12 04:45:20;;;;;;;11.95;6.32;;;;;;;28.83;58.72;101527.25;5053913;28;20036;-72
2023/08/12 04:47:46;;;;;;;11.77;5.60;;;;;;;28.82;59.91;101524.69;5055275;28;20059;-72
2023/08/12 04:50:11;;;;;;;13.18;6.30;;;;;;;28.31;60.82;101536.56;5072137;28;20095;-73
2023/08/12 04:52:36;;;;;;;11.23;6.10;;;;;;;28.34;61.00;101531.78;5054472;28;20511;-73
2023/08/12 04:55:03;;;;;;;12.80;5.97;;;;;;;28.93;59.62;101525.59;5070010;28;20039;-73
2023/08/12 04:57:28;;;;;;;12.52;6.07;;;;;;;28.38;61.99;101532.44;5056960;28;20083;-73
2023/08/12 04:59:55;;;;;;;14.38;6.15;;;;;;;28.50;60.92;101522.59;5091152;28;20055;-73
2023/08/12 05:02:20;;;;;;;7.75;5.25;;;;;;;28.31;62.15;101523.13;5081401;28;20020;-72
2023/08/12 05:04:50;;;;;;;9.82;5.85;;;;;;;27.86;64.90;101526.34;5071193;28;20086;-73
2023/08/12 05:07:16;;;;;;;12.02;5.38;;;;;;;28.46;62.48;101524.66;5071993;28;20024;-73
2023/08/12 05:09:43;;;;;;;10.13;5.40;;;;;;;28.26;63.71;101518.94;5079797;28;20083;-73
2023/08/12 05:12:10;;;;;;;9.57;5.40;;;;;;;28.06;64.35;101516.88;5092061;28;20525;-73
2023/08/12 05:14:35;;;;;;;8.80;4.75;;;;;;;27.46;67.07;101513.97;5090980;28;20039;-73
2023/08/12 05:17:00;;;;;;;9.27;4.82;;;;;;;27.77;66.79;101519.84;5091573;28;20028;-73
2023/08/12 05:19:26;;;;;;;9.73;5.45;;;;;;;27.25;68.71;101519.84;5090801;28;20032;-73
2023/08/12 05:21:51;;;;;;;7.97;5.10;;;;;;;27.15;69.62;101525.94;5092478;28;20024;-73
2023/08/12 05:24:16;;;;;;;8.93;3.83;;;;;;;28.03;65.40;101511.75;5091271;28;20476;-73
2023/08/12 05:26:42;;;;;;;6.95;4.60;;;;;;;28.49;61.87;101516.34;5090714;28;20143;-73
2023/08/12 05:29:08;;;;;;;9.88;4.28;;;;;;;28.65;60.87;101517.94;5091798;28;20020;-74
2023/08/12 05:31:33;;;;;;;6.95;4.28;;;;;;;28.91;60.26;101514.09;5080294;28;20057;-74
2023/08/12 05:33:58;;;;;;;6.20;4.65;;;;;;;28.53;62.22;101525.91;5090419;28;20035;-73
2023/08/12 05:36:24;;;;;;;8.85;4.28;;;;;;;28.38;62.97;101533.28;5090840;28;20039;-73
2023/08/12 05:38:49;;;;;;;9.55;4.80;;;;;;;27.84;66.13;101545.28;5089899;28;20031;-75
2023/08/12 05:41:15;;;;;;;8.82;4.78;;;;;;;26.61;74.62;101551.03;5078591;28;20051;-74
2023/08/12 05:43:40;;;;;;;10.50;4.70;;;;;;;27.07;72.59;101553.34;5070168;28;20119;-73
2023/08/12 05:46:05;;;;;;;9.13;4.63;;;;;;;26.43;76.85;101562.00;5080185;28;20396;-72
2023/08/12 05:48:31;;;;;;;9.48;4.82;;;;;;;27.39;73.56;101550.25;5089654;28;20495;-74
2023/08/12 05:50:56;;;;;;;9.57;5.20;;;;;;;27.45;72.81;101555.22;5086755;28;20035;-75
2023/08/12 05:53:22;;;;;;;9.70;5.05;;;;;;;27.76;69.68;101532.38;5087218;28;20045;-75
2023/08/12 05:55:48;;;;;;;8.07;4.43;;;;;;;28.10;67.34;101515.69;5087869;28;20055;-75
2023/08/12 05:58:13;;;;;;;8.63;4.18;;;;;;;28.11;66.19;101514.72;5089923;28;20040;-75
2023/08/12 06:00:38;;;;;;;5.65;2.95;;;;;;;26.69;72.97;101528.09;5088890;28;20036;-75
2023/08/12 06:03:04;;;;;;;6.53;2.42;;;;;;;27.11;72.56;101519.09;5090616;28;20034;-75
2023/08/12 06:05:29;;;;;;;3.20;2.10;;;;;;;27.81;67.95;101509.72;5080946;28;20138;-77
2023/08/12 06:07:55;;;;;;;2.95;2.13;;;;;;;27.79;69.02;101515.19;5074369;28;20385;-76
2023/08/12 06:10:20;;;;;;;4.72;1.88;;;;;;;28.10;66.33;101513.84;5087585;28;20082;-76
2023/08/12 06:12:45;;;;;;;4.13;1.90;;;;;;;27.64;69.59;101516.31;5091309;28;20032;-76
2023/08/12 06:15:11;;;;;;;4.55;1.88;;;;;;;26.92;73.71;101523.91;5089617;28;20072;-76
2023/08/12 06:17:36;;;;;;;4.28;2.00;;;;;;;27.40;70.07;101515.25;5086734;28;20025;-76
2023/08/12 06:20:02;;;;;;;3.47;1.90;;;;;;;27.32;70.18;101519.44;5086368;28;20035;-77
2023/08/12 06:22:28;;;;;;;2.90;1.80;;;;;;;27.34;71.09;101518.34;5070044;28;20020;-76
2023/08/12 06:24:53;;;;;;;1.83;1.33;;;;;;;27.15;71.95;101523.28;5082501;28;20034;-76
2023/08/12 06:27:20;;;;;;;5.20;1.60;;;;;;;27.80;69.04;101521.44;5090373;28;20020;-75
2023/08/12 06:29:46;;;;;;;3.42;1.35;;;;;;;27.31;71.56;101509.66;5085905;28;20039;-75
2023/08/12 06:32:12;;;;;;;3.13;1.40;;;;;;;26.57;76.05;101516.41;5088598;28;20494;-75
2023/08/12 06:34:38;;;;;;;2.60;1.58;;;;;;;27.77;69.32;101506.41;5090089;28;20028;-75
2023/08/12 06:37:03;;;;;;;1.58;1.23;;;;;;;27.67;70.44;101505.34;5089271;28;20039;-75
2023/08/12 06:39:29;;;;;;;1.38;1.25;;;;;;;26.42;74.93;101512.09;5090353;28;20028;-75
2023/08/12 06:41:55;;;;;;;2.55;1.50;;;;;;;26.34;80.22;101514.41;5090336;28;20577;-75
2023/08/12 06:44:21;;;;;;;2.58;1.30;;;;;;;26.70;77.14;101507.56;5091223;28;20028;-74
2023/08/12 06:46:46;;;;;;;1.17;1.00;;;;;;;27.69;70.79;101509.63;5089301;28;20031;-73
2023/08/12 06:49:12;;;;;;;2.47;1.20;;;;;;;27.56;70.19;101498.94;5089620;28;20028;-73
2023/08/12 06:51:38;;;;;;;2.38;1.73;;;;;;;26.38;77.52;101506.06;5084083;28;20020;-73
2023/08/12 06:54:04;;;;;;;1.70;1.40;;;;;;;27.12;73.95;101502.91;5090782;28;20036;-72
2023/08/12 06:56:29;;;;;;;1.58;1.27;;;;;;;27.46;73.09;101503.22;5088460;28;20044;-73
2023/08/12 06:58:56;;;;;;;1.92;1.10;;;;;;;26.12;79.47;101510.47;5058309;28;20079;-72
2023/08/12 07:01:21;;;;;;;2.25;1.60;;;;;;;26.49;81.97;101518.75;5052303;28;20404;-72
2023/08/12 07:03:47;;;;;;;1.77;1.60;;;;;;;26.58;81.62;101512.78;5040586;28;20044;-73
2023/08/12 07:06:12;;;;;;;1.65;1.52;;;;;;;25.46;86.24;101518.16;5049900;28;20025;-74
2023/08/12 07:08:38;;;;;;;1.90;1.27;;;;;;;26.64;82.40;101515.97;5065093;28;20484;-76
2023/08/12 07:11:04;;;;;;;1.70;1.45;;;;;;;26.55;80.99;101523.69;5071401;28;20485;-77
2023/08/12 07:13:30;;;;;;;1.58;1.40;;;;;;;26.52;82.23;101520.38;5051654;28;20108;-77
2023/08/12 07:15:55;;;;;;;2.05;1.30;;;;;;;27.81;72.69;101505.22;5070177;28;20095;-76
2023/08/12 07:18:22;;;;;;;1.73;1.13;;;;;;;26.72;79.98;101524.41;5052014;28;20437;-76
2023/08/12 07:20:48;;;;;;;3.25;1.10;;;;;;;26.76;80.66;101515.19;5052051;28;20025;-77
2023/08/12 07:23:16;;;;;;;0.85;0.82;;;;;;;27.89;72.22;101510.88;5041801;28;20028;-77
2023/08/12 07:25:42;;;;;;;1.38;1.08;;;;;;;26.65;78.94;101517.72;5032940;28;20021;-77
2023/08/12 07:28:07;;;;;;;1.27;0.85;;;;;;;27.63;74.87;101509.22;5044394;28;20023;-76
2023/08/12 07:30:38;;;;;;;1.27;1.00;;;;;;;27.06;75.01;101546.25;5070467;28;20025;-76
2023/08/12 07:33:04;;;;;;;1.52;0.73;;;;;;;24.22;78.16;101560.13;5069465;28;20024;-75
2023/08/12 07:35:30;;;;;;;5.40;1.20;;;;;;;24.15;78.60;101550.75;5052070;28;20031;-75
2023/08/12 07:37:55;;;;;;;3.20;1.35;;;;;;;24.67;75.29;101548.72;5051815;28;20032;-74
2023/08/12 07:40:21;;;;;;;3.42;0.88;;;;;;;23.99;79.24;101542.72;5043680;28;20407;-72
2023/08/12 07:42:47;;;;;;;4.78;1.00;;;;;;;24.58;75.95;101546.53;5039111;28;20016;-73
2023/08/12 07:45:13;;;;;;;5.22;1.20;;;;;;;24.07;79.21;101542.31;5052113;28;20123;-73
2023/08/12 07:47:38;;;;;;;1.15;0.90;;;;;;;24.49;78.94;101554.16;5050501;28;20027;-72
2023/08/12 07:50:05;;;;;;;1.88;1.33;;;;;;;24.33;77.48;101550.63;5051580;28;20048;-72
2023/08/12 07:52:30;;;;;;;5.25;1.25;;;;;;;23.99;79.63;101544.53;5054727;28;20024;-72
2023/08/12 07:54:56;;;;;;;2.38;0.73;;;;;;;24.41;73.48;101559.06;5054785;28;20032;-72
2023/08/12 07:57:23;;;;;;;1.75;0.88;;;;;;;24.39;72.30;101566.31;5064161;28;20565;-72
2023/08/12 07:59:52;;;;;;;2.88;0.77;;;;;;;24.46;75.42;101567.69;5093254;28;20024;-72
2023/08/12 08:02:17;;;;;;;7.03;1.58;;;;;;;24.88;73.02;101576.88;5092686;28;20110;-72
2023/08/12 08:04:43;;;;;;;4.50;1.20;;;;;;;24.59;73.48;101575.00;5092432;28;20546;-73
2023/08/12 08:07:09;;;;;;;1.35;0.60;;;;;;;24.44;75.00;101577.63;5091423;28;20078;-74
2023/08/12 08:09:36;;;;;;;4.60;0.90;;;;;;;24.04;76.58;101569.16;5091180;28;20023;-73
2023/08/12 08:12:02;;;;;;;6.75;1.33;;;;;;;24.38;77.12;101572.59;5079454;28;20028;-73
2023/08/12 08:14:28;;;;;;;3.40;0.90;;;;;;;24.65;74.56;101562.19;5089841;28;20407;-73
2023/08/12 08:16:53;;;;;;;0.95;0.70;;;;;;;24.66;76.82;101571.03;5092592;28;20035;-73
2023/08/12 08:19:19;;;;;;;1.95;0.90;;;;;;;25.03;73.01;101569.75;5092062;28;20035;-73
2023/08/12 08:21:44;;;;;;;3.35;1.08;;;;;;;25.33;72.19;101570.69;5090584;28;20034;-74
2023/08/12 08:24:12;;;;;;;2.45;0.88;;;;;;;25.43;71.34;101563.84;5092130;28;20032;-72
2023/08/12 08:26:38;;;;;;;2.45;1.00;;;;;;;25.69;69.63;101564.03;5093324;28;20024;-73
2023/08/12 08:29:04;;;;;;;3.95;1.25;;;;;;;25.02;71.59;101573.38;5089993;28;20031;-73
2023/08/12 08:31:29;;;;;;;1.77;1.10;;;;;;;25.01;75.10;101576.16;5092367;28;20111;-72
2023/08/12 08:33:55;;;;;;;2.53;1.42;;;;;;;25.79;70.40;101570.53;5089925;28;20241;-72
2023/08/12 08:36:20;;;;;;;3.40;1.00;;;;;;;25.64;70.42;101574.19;5090961;28;20445;-72
2023/08/12 08:38:45;;;;;;;5.38;1.58;;;;;;;26.28;68.63;101565.72;5089207;28;20025;-72
2023/08/12 08:41:11;;;;;;;6.10;1.48;;;;;;;25.27;73.12;101579.09;5093252;28;20028;-72
2023/08/12 08:43:41;;;;;;;2.25;1.00;;;;;;;25.23;70.37;101568.53;5091401;28;20094;-72
2023/08/12 08:46:08;;;;;;;1.90;1.15;;;;;;;25.72;73.53;101562.03;5091932;28;20074;-72
2023/08/12 08:48:33;;;;;;;1.98;0.80;;;;;;;25.95;70.54;101556.16;5090501;28;20023;-72
2023/08/12 08:51:01;;;;;;;3.15;1.33;;;;;;;26.94;65.06;101555.13;5090326;28;20039;-72
2023/08/12 08:53:26;;;;;;;1.77;1.15;;;;;;;27.01;64.15;101549.25;5091269;28;20389;-73
2023/08/12 08:55:52;;;;;;;2.67;1.40;;;;;;;27.42;62.11;101555.41;5090604;28;20039;-72
2023/08/12 08:58:18;;;;;;;5.70;1.48;;;;;;;28.65;60.35;101552.88;5075100;28;20047;-72
2023/08/12 09:00:44;;;;;;;1.08;0.98;;;;;;;29.28;55.97;101559.69;5043837;28;20028;-72
2023/08/12 09:03:10;;;;;;;2.83;1.23;;;;;;;29.95;51.33;101551.75;5054057;28;20478;-73
2023/08/12 09:05:38;;;;;;;2.63;0.82;;;;;;;28.03;57.05;101560.09;5036962;28;20033;-73
2023/08/12 09:08:06;;;;;;;5.20;0.90;;;;;;;29.08;56.61;101552.28;5047485;28;20043;-73
2023/08/12 09:10:35;;;;;;;3.53;0.80;;;;;;;30.57;50.37;101560.19;5034220;28;20028;-73
2023/08/12 09:13:02;;;;;;;1.38;0.73;;;;;;;30.56;51.09;101556.66;5039942;28;20049;-72
2023/08/12 09:15:27;;;;;;;2.88;0.70;;;;;;;30.02;50.74;101565.56;5052677;28;20066;-72
2023/08/12 09:17:52;;;;;;;2.47;0.82;;;;;;;30.60;49.50;101571.59;5070436;28;20036;-72
2023/08/12 09:20:18;;;;;;;3.63;1.05;;;;;;;31.01;47.59;101576.28;5054079;28;20071;-72
2023/08/12 09:22:44;;;;;;;4.35;0.80;;;;;;;31.88;45.98;101575.94;5070946;28;20085;-72
2023/08/12 09:25:10;;;;;;;3.88;0.90;;;;;;;32.32;46.06;101586.47;5067369;28;20042;-71
2023/08/12 09:27:38;;;;;;;3.15;0.63;;;;;;;31.05;44.48;101588.56;5050104;28;20036;-72
2023/08/12 09:30:04;;;;;;;2.00;0.70;;;;;;;31.97;44.82;101577.84;5051822;28;20020;-72
2023/08/12 09:32:30;;;;;;;4.15;0.80;;;;;;;31.11;44.31;101571.84;5042842;28;20590;-72
2023/08/12 09:34:56;;;;;;;0.80;0.50;;;;;;;28.99;47.49;101593.34;5039779;28;20053;-72
2023/08/12 09:37:23;;;;;;;1.58;0.63;;;;;;;30.31;46.26;101594.69;5071023;28;20029;-71
2023/08/12 09:39:50;;;;;;;2.25;0.80;;;;;;;28.17;49.69;101597.56;5068241;28;20071;-71
2023/08/12 09:42:16;;;;;;;1.63;0.88;;;;;;;28.91;49.99;101600.16;5053646;28;20116;-72
2023/08/12 09:44:42;;;;;;;1.02;0.52;;;;;;;28.33;50.32;101591.03;5052407;28;20495;-71
2023/08/12 09:47:09;;;;;;;1.45;0.60;;;;;;;30.32;47.17;101591.84;5052830;28;20028;-72
2023/08/12 09:49:38;;;;;;;5.72;1.35;;;;;;;28.68;48.02;101603.75;5052359;28;20024;-70
2023/08/12 09:52:04;;;;;;;2.65;0.70;;;;;;;28.89;45.94;101595.88;5071045;28;20138;-71
2023/08/12 09:54:35;;;;;;;2.58;0.60;;;;;;;29.05;44.80;101596.41;5068086;28;20032;-71
2023/08/12 09:57:02;;;;;;;3.65;0.70;;;;;;;28.12;45.98;101599.72;5057788;28;20135;-72
2023/08/12 09:59:32;;;;;;;1.20;0.50;;;;;;;27.33;47.96;101598.97;5088721;28;20464;-71
2023/08/12 10:01:57;;;;;;;4.30;0.65;;;;;;;28.00;47.23;101604.16;5085362;28;20028;-71
2023/08/12 10:04:27;;;;;;;1.80;0.50;;;;;;;28.87;43.88;101606.75;5070282;28;20024;-71
2023/08/12 10:06:53;;;;;;;5.97;0.80;;;;;;;27.63;44.64;101601.38;5084918;28;20024;-71
2023/08/12 10:09:19;;;;;;;3.15;0.90;;;;;;;28.18;45.21;101593.91;5080857;28;20476;-72
2023/08/12 10:11:46;;;;;;;3.55;1.00;;;;;;;28.34;46.66;101587.41;5084517;28;20027;-71
2023/08/12 10:14:12;;;;;;;3.55;1.42;;;;;;;28.63;46.24;101592.44;5073297;28;20038;-72
2023/08/12 10:16:39;;;;;;;2.40;0.73;;;;;;;29.12;45.88;101602.19;5084631;28;20028;-71
2023/08/12 10:19:05;;;;;;;5.85;0.82;;;;;;;27.74;48.04;101597.94;5091121;28;20027;-71
2023/08/12 10:21:31;;;;;;;4.70;0.70;;;;;;;28.48;46.23;101592.63;5079020;28;20065;-71
2023/08/12 10:24:00;;;;;;;2.03;0.60;;;;;;;28.28;47.23;101596.78;5087861;28;20028;-71
2023/08/12 10:26:26;;;;;;;4.65;1.25;;;;;;;27.54;48.95;101602.00;5089563;28;20586;-71
2023/08/12 10:28:51;;;;;;;4.32;1.40;;;;;;;28.66;46.89;101590.41;5089047;28;20039;-71
2023/08/12 10:31:19;;;;;;;4.47;1.00;;;;;;;28.94;48.42;101605.31;5088540;28;20028;-71
2023/08/12 10:33:44;;;;;;;3.60;0.52;;;;;;;28.63;46.83;101605.88;5088239;28;20023;-72
2023/08/12 10:36:10;;;;;;;5.38;1.42;;;;;;;28.71;49.05;101608.88;5081942;28;20035;-71
2023/08/12 10:38:36;;;;;;;4.38;1.25;;;;;;;28.20;49.90;101602.69;5085234;28;20024;-71
2023/08/12 10:41:21;;;;;;;2.22;0.63;;;;;;;29.43;47.68;101599.84;5088143;28;20472;-71
2023/08/12 10:43:55;;;;;;;1.58;0.70;;;;;;;29.26;45.98;101595.78;5087899;28;20501;-71
2023/08/12 10:46:35;;;;;;;2.20;0.43;;;;;;;28.08;46.04;101596.41;5089580;28;20024;-71
2023/08/12 10:49:08;;;;;;;5.03;0.85;;;;;;;29.36;44.44;101598.59;5088248;28;20043;-72
2023/08/12 10:51:41;;;;;;;3.92;0.68;;;;;;;29.19;44.61;101598.03;5088933;28;20414;-71
2023/08/12 10:54:29;;;;;;;5.65;1.45;;;;;;;28.76;45.86;101590.56;5082069;28;20085;-71
2023/08/12 10:57:01;;;;;;;3.13;0.70;;;;;;;27.54;47.52;101593.97;5077860;28;20113;-71
2023/08/12 10:59:45;;;;;;;3.43;0.80;;;;;;;29.83;44.88;101580.53;5041800;28;20074;-71
2023/08/12 11:02:17;;;;;;;7.32;0.93;;;;;;;29.01;44.98;101588.72;5052629;28;20039;-72
2023/08/12 11:04:43;;;;;;;4.80;1.08;;;;;;;28.64;45.21;101591.50;5050211;28;20021;-71
2023/08/12 11:07:18;;;;;;;3.78;1.10;;;;;;;29.37;44.65;101585.00;5044385;28;20428;-72
2023/08/12 11:09:45;;;;;;;4.35;1.10;;;;;;;29.34;43.99;101595.19;5051283;28;20092;-72
2023/08/12 11:12:11;;;;;;;4.97;0.70;;;;;;;29.05;44.29;101587.50;5048470;28;20032;-72
2023/08/12 11:14:57;;;;;;;7.07;1.52;;;;;;;27.40;46.35;101600.28;5034559;28;20037;-71
2023/08/12 11:17:35;;;;;;;5.00;0.90;;;;;;;28.34;46.32;101584.69;5031626;28;20035;-71
2023/08/12 11:20:04;;;;;;;2.83;0.88;;;;;;;29.48;44.62;101597.63;5049900;28;20024;-72